Flugplatz Norvenich Airport

Bericht für ETNN

vom 17.07. um 23:20 UTC

variable Windrichtung mit 3 kt

Sichtweite 10 km oder mehr

aufgelockert bewölkt in 18000 ft

aufgebrochene Bewölkung in 32000 ft

Temperatur 14.0°C

Taupunkt 11.0°C

Luftfeuchtigkeit 82%

Luftdruck 1013 hPa

ETNN 172320Z VRB03KT 9999 SCT180 BKN320 14/11 Q1013 BLU+
Keine Prognose (TAF) verfügbar.
Impressum